Relevés horaires Bierset (Belgique)


Relevés horaires à Bierset - Dimanche 16 Juill. 2017
Heure UTC1 Température [°C] Vent [km/h] Hum. [%] Pres.4 [hPa] Visi. [Km] Nébu. [octa] Préc.5 [mm] Cond.
2m. Res. Ros. Dir.2 Vit. Moy. Raf.3
23:00 18.5 18.5 15.2 SSO 1.9 1.9 5.6 81 1022.7(-0.3/3h) 30 4/8 -- --
22:00 18.9 18.9 15.9 SO 1.9 1.9 5.6 83 1022.8(0.0/3h) 30 5/8 -- --
21:00 19.8 19.8 15.8 ENE 1.9 3.7 5.6 78 1022.8(0.0/3h) 35 7/8 -- --
20:00 19.8 19.8 16.1 NNO 0.0 1.9 3.7 79 1022.9(-0.1/3h) 35 7/8 -- --
19:00 19.9 19.9 15.9 NO 1.9 3.7 5.6 78 1022.8(-0.5/3h) 35 7/8 -- --
18:00 20.8 20.8 15.8 NO 3.7 11.1 14.8 73 1022.8(-0.7/3h) 25 6/8 0/12h
--
17:00 21.1 21.1 16.2 NO 3.7 5.6 9.3 74 1022.9(-0.5/3h) 25 7/8 -- --
16:00 20.8 20.8 16.0 ONO 5.6 7.4 11.1 74 1023.2(-0.3/3h) 25 7/8 -- --
15:00 21.1 21.1 15.7 O 7.4 11.1 14.8 71 1023.4(0.1/3h) 18 7/8 -- --
14:00 21.4 21.4 15.8 O 9.3 9.3 13.0 70 1023.4(-0.2/3h) 18 7/8 -- --
13:00 20.9 20.9 16.0 ONO 7.4 11.1 14.8 74 1023.5(-0.3/3h) 18 6/8 -- --
12:00 20.9 20.9 16.2 O 7.4 9.3 13.0 75 1023.5(-0.3/3h) 18 5/8 0/6h
--
11:00 20.2 20.2 15.6 OSO 7.4 7.4 11.1 75 1023.7(0.0/3h) 18 8/8 -- --
10:00 19.0 19.0 15.3 OSO 5.6 5.6 9.3 79 1024(0.3/3h) 18 8/8 -- --
09:00 17.4 17.4 14.4 SO 5.6 7.4 13.0 83 1024(0.6/3h) 40 8/8 -- --
08:00 17.0 17.0 13.7 SO 5.6 7.4 9.3 81 1024(0.8/3h) 40 8/8 -- --
07:00 16.5 16.5 13.2 SO 5.6 7.4 11.1 81 1023.8(0.6/3h) 40 8/8 -- --
06:00 16.2 16.2 13.1 SO 7.4 9.3 11.1 82 1023.5(0.2/3h) 40 7/8 0/12h
--
05:00 16.2 16.2 13.0 SO 7.4 7.4 9.3 81 1023.2(0.0/3h) 40 8/8 -- --
04:00 16.0 16.0 13.2 SO 5.6 7.4 11.1 83 1023.2(-0.1/3h) 40 8/8 -- --
03:00 16.2 16.2 13.3 SO 5.6 9.3 11.1 83 1023.3(-0.1/3h) 25 8/8 -- --
02:00 16.1 16.1 13.2 SSO 5.6 9.3 11.1 83 1023.2(-0.6/3h) 35 8/8 -- --
01:00 16.4 16.4 13.0 SSO 7.4 7.4 9.3 80 1023.4(-0.4/3h) 35 8/8 -- --
00:00 16.4 16.4 13.3 S 7.4 7.4 16.7 82 1023.4(0.1/3h) 35 8/8 0/6h
0/24h
Il est tombé de la pluie (non sous forme d'averses) à la station au cours de l'heure précédente, mais il n'y en a pas au moment de l'observation

1 Coordinated Universal Time. Actuellement il est 11:00 locale et 09:00 UTC.

2 Le vent souffle depuis la direction indiquée vers la direction oposée.

3 Les rafales max. sont disponible 40 min après l'heure du relevé.

4 Pour les stations d'altitude (plus de 600m) le géopotentiel du niveau le plus proche de la pression obligatoire est indiqué.

5 Les stations disposant d'un diffuseur peuvent indiquer "trace". Cela signifie que des précipitations ont touchés le sol mais que la quantité est inférieure à 0.1 mm.

Récapitulatif de la journée
Température [°C] Vent [km/h] Ensoleillement4 [h] Precipitations totale5 [mm] Pression [Hpa]
Min1 Max.2 Moy.3 Max. Min Max.
15.9 21.7 7.1 16.7 0 h 0 min 0 1022.7 1024.0

1 Température minimale relevée entre 18:00 UTC la veille et 18:00 UTC le jour donné.

2 Température maximale relevée entre 06:00 UTC le jour donné et 06:00 UTC le lendemain.

3 Vent moyen de la journée basé sur les relevés horaires.

4 Ensoleillement en heures relevé entre 06:00 UTC la veille et 06:00 UTC le jour donné.

5 Précipitations totales tombées entre 06:00 UTC la jour donné et 06:00 UTC le lendemain.

Graphiques horaires